<?xml version="1.0" encoding="UTF-8" standalone="no" ?>
<gpx xmlns="http://www.topografix.com/GPX/1/1" xmlns:xsi="http://www.w3.org/2001/XMLSchema-instance" xsi:schemaLocation="http://www.topografix.com/GPX/1/1 http://www.topografix.com/GPX/1/1/gpx.xsd" version="1.1" creator="VisuGPX - https://www.visugpx.com">
  <metadata>
    <name>Vallée de la Viosne 30K</name>
  </metadata>
  <trk>
    <name><![CDATA[Santeuil Vallée de la Viosne 30km-15753622]]></name>
    <trkseg>
      <trkpt lat="49.12433" lon="1.94917">
        <ele>54</ele>
        <time>2024-04-20T11:52:20Z</time>
      </trkpt>
      <trkpt lat="49.12437" lon="1.94912">
        <ele>54</ele>
        <time>2024-04-20T11:52:27Z</time>
      </trkpt>
      <trkpt lat="49.12441" lon="1.94916">
        <ele>54</ele>
        <time>2024-04-20T11:52:33Z</time>
      </trkpt>
      <trkpt lat="49.12453" lon="1.9493">
        <ele>53.4</ele>
        <time>2024-04-20T11:52:53Z</time>
      </trkpt>
      <trkpt lat="49.12468" lon="1.94947">
        <ele>53</ele>
        <time>2024-04-20T11:53:18Z</time>
      </trkpt>
      <trkpt lat="49.12553" lon="1.95026">
        <ele>54.8</ele>
        <time>2024-04-20T11:55:31Z</time>
      </trkpt>
      <trkpt lat="49.1255" lon="1.95053">
        <ele>55.5</ele>
        <time>2024-04-20T11:55:55Z</time>
      </trkpt>
      <trkpt lat="49.12549" lon="1.95113">
        <ele>59.7</ele>
        <time>2024-04-20T11:56:47Z</time>
      </trkpt>
      <trkpt lat="49.12545" lon="1.95152">
        <ele>62.4</ele>
        <time>2024-04-20T11:57:22Z</time>
      </trkpt>
      <trkpt lat="49.12557" lon="1.95174">
        <ele>65.8</ele>
        <time>2024-04-20T11:57:47Z</time>
      </trkpt>
      <trkpt lat="49.12568" lon="1.95176">
        <ele>68.4</ele>
        <time>2024-04-20T11:58:02Z</time>
      </trkpt>
      <trkpt lat="49.12579" lon="1.95171">
        <ele>70.4</ele>
        <time>2024-04-20T11:58:17Z</time>
      </trkpt>
      <trkpt lat="49.12581" lon="1.95176">
        <ele>71.2</ele>
        <time>2024-04-20T11:58:22Z</time>
      </trkpt>
      <trkpt lat="49.12578" lon="1.95196">
        <ele>71.9</ele>
        <time>2024-04-20T11:58:40Z</time>
      </trkpt>
      <trkpt lat="49.1258" lon="1.9522">
        <ele>73.4</ele>
        <time>2024-04-20T11:59:01Z</time>
      </trkpt>
      <trkpt lat="49.12579" lon="1.95239">
        <ele>74.7</ele>
        <time>2024-04-20T11:59:18Z</time>
      </trkpt>
      <trkpt lat="49.12578" lon="1.95248">
        <ele>75.3</ele>
        <time>2024-04-20T11:59:26Z</time>
      </trkpt>
      <trkpt lat="49.12567" lon="1.95288">
        <ele>77.7</ele>
        <time>2024-04-20T12:00:04Z</time>
      </trkpt>
      <trkpt lat="49.12564" lon="1.95325">
        <ele>80.3</ele>
        <time>2024-04-20T12:00:36Z</time>
      </trkpt>
      <trkpt lat="49.12565" lon="1.9534">
        <ele>81.7</ele>
        <time>2024-04-20T12:00:49Z</time>
      </trkpt>
      <trkpt lat="49.12572" lon="1.95377">
        <ele>85.1</ele>
        <time>2024-04-20T12:01:23Z</time>
      </trkpt>
      <trkpt lat="49.12573" lon="1.95404">
        <ele>86.4</ele>
        <time>2024-04-20T12:01:47Z</time>
      </trkpt>
      <trkpt lat="49.1258" lon="1.95428">
        <ele>88</ele>
        <time>2024-04-20T12:02:10Z</time>
      </trkpt>
      <trkpt lat="49.12586" lon="1.95457">
        <ele>89.7</ele>
        <time>2024-04-20T12:02:36Z</time>
      </trkpt>
      <trkpt lat="49.12591" lon="1.9547">
        <ele>90.5</ele>
        <time>2024-04-20T12:02:49Z</time>
      </trkpt>
      <trkpt lat="49.12599" lon="1.9548">
        <ele>91</ele>
        <time>2024-04-20T12:03:03Z</time>
      </trkpt>
      <trkpt lat="49.12671" lon="1.95562">
        <ele>94.2</ele>
        <time>2024-04-20T12:05:03Z</time>
      </trkpt>
      <trkpt lat="49.12685" lon="1.95571">
        <ele>94.7</ele>
        <time>2024-04-20T12:05:23Z</time>
      </trkpt>
      <trkpt lat="49.12699" lon="1.95573">
        <ele>95.2</ele>
        <time>2024-04-20T12:05:42Z</time>
      </trkpt>
      <trkpt lat="49.1271" lon="1.95571">
        <ele>95.6</ele>
        <time>2024-04-20T12:05:57Z</time>
      </trkpt>
      <trkpt lat="49.12753" lon="1.95564">
        <ele>97</ele>
        <time>2024-04-20T12:06:54Z</time>
      </trkpt>
      <trkpt lat="49.12771" lon="1.95565">
        <ele>97</ele>
        <time>2024-04-20T12:07:19Z</time>
      </trkpt>
      <trkpt lat="49.12791" lon="1.95574">
        <ele>97.5</ele>
        <time>2024-04-20T12:07:46Z</time>
      </trkpt>
      <trkpt lat="49.12804" lon="1.95588">
        <ele>97.8</ele>
        <time>2024-04-20T12:08:08Z</time>
      </trkpt>
      <trkpt lat="49.12818" lon="1.95612">
        <ele>97.4</ele>
        <time>2024-04-20T12:08:36Z</time>
      </trkpt>
      <trkpt lat="49.12862" lon="1.95724">
        <ele>98</ele>
        <time>2024-04-20T12:10:30Z</time>
      </trkpt>
      <trkpt lat="49.12942" lon="1.95864">
        <ele>98.9</ele>
        <time>2024-04-20T12:13:12Z</time>
      </trkpt>
      <trkpt lat="49.12995" lon="1.95993">
        <ele>99.1</ele>
        <time>2024-04-20T12:15:25Z</time>
      </trkpt>
      <trkpt lat="49.13031" lon="1.96053">
        <ele>98.2</ele>
        <time>2024-04-20T12:16:36Z</time>
      </trkpt>
      <trkpt lat="49.13032" lon="1.96055">
        <ele>98.2</ele>
        <time>2024-04-20T12:16:38Z</time>
      </trkpt>
      <trkpt lat="49.13134" lon="1.95912">
        <ele>102</ele>
        <time>2024-04-20T12:19:43Z</time>
      </trkpt>
      <trkpt lat="49.1318" lon="1.95833">
        <ele>103.5</ele>
        <time>2024-04-20T12:21:15Z</time>
      </trkpt>
      <trkpt lat="49.13201" lon="1.95783">
        <ele>104</ele>
        <time>2024-04-20T12:22:07Z</time>
      </trkpt>
      <trkpt lat="49.13253" lon="1.9561">
        <ele>101.1</ele>
        <time>2024-04-20T12:24:53Z</time>
      </trkpt>
      <trkpt lat="49.13273" lon="1.95513">
        <ele>100</ele>
        <time>2024-04-20T12:26:22Z</time>
      </trkpt>
      <trkpt lat="49.13299" lon="1.95354">
        <ele>97.5</ele>
        <time>2024-04-20T12:28:45Z</time>
      </trkpt>
      <trkpt lat="49.13323" lon="1.95293">
        <ele>95.9</ele>
        <time>2024-04-20T12:29:48Z</time>
      </trkpt>
      <trkpt lat="49.13328" lon="1.95285">
        <ele>95.5</ele>
        <time>2024-04-20T12:29:57Z</time>
      </trkpt>
      <trkpt lat="49.13356" lon="1.95187">
        <ele>92.5</ele>
        <time>2024-04-20T12:31:31Z</time>
      </trkpt>
      <trkpt lat="49.13361" lon="1.95154">
        <ele>92.5</ele>
        <time>2024-04-20T12:32:00Z</time>
      </trkpt>
      <trkpt lat="49.13369" lon="1.95061">
        <ele>90.8</ele>
        <time>2024-04-20T12:33:22Z</time>
      </trkpt>
      <trkpt lat="49.13378" lon="1.95016">
        <ele>89.6</ele>
        <time>2024-04-20T12:34:03Z</time>
      </trkpt>
      <trkpt lat="49.13387" lon="1.94988">
        <ele>88.9</ele>
        <time>2024-04-20T12:34:30Z</time>
      </trkpt>
      <trkpt lat="49.13465" lon="1.94795">
        <ele>78.4</ele>
        <time>2024-04-20T12:37:48Z</time>
      </trkpt>
      <trkpt lat="49.13601" lon="1.94716">
        <ele>75.4</ele>
        <time>2024-04-20T12:41:03Z</time>
      </trkpt>
      <trkpt lat="49.13718" lon="1.94607">
        <ele>78.2</ele>
        <time>2024-04-20T12:44:05Z</time>
      </trkpt>
      <trkpt lat="49.13752" lon="1.94524">
        <ele>74.7</ele>
        <time>2024-04-20T12:45:31Z</time>
      </trkpt>
      <trkpt lat="49.13769" lon="1.945">
        <ele>73.4</ele>
        <time>2024-04-20T12:46:02Z</time>
      </trkpt>
      <trkpt lat="49.13769" lon="1.94506">
        <ele>74</ele>
        <time>2024-04-20T12:46:07Z</time>
      </trkpt>
      <trkpt lat="49.13771" lon="1.94506">
        <ele>74.2</ele>
        <time>2024-04-20T12:46:10Z</time>
      </trkpt>
      <trkpt lat="49.13769" lon="1.94506">
        <ele>74</ele>
        <time>2024-04-20T12:46:12Z</time>
      </trkpt>
      <trkpt lat="49.13772" lon="1.9445">
        <ele>70.5</ele>
        <time>2024-04-20T12:47:01Z</time>
      </trkpt>
      <trkpt lat="49.13773" lon="1.94402">
        <ele>68.5</ele>
        <time>2024-04-20T12:47:43Z</time>
      </trkpt>
      <trkpt lat="49.13769" lon="1.94378">
        <ele>66.9</ele>
        <time>2024-04-20T12:48:05Z</time>
      </trkpt>
      <trkpt lat="49.1376" lon="1.94349">
        <ele>64.6</ele>
        <time>2024-04-20T12:48:33Z</time>
      </trkpt>
      <trkpt lat="49.13754" lon="1.94335">
        <ele>63.4</ele>
        <time>2024-04-20T12:48:48Z</time>
      </trkpt>
      <trkpt lat="49.13786" lon="1.94299">
        <ele>64.4</ele>
        <time>2024-04-20T12:49:41Z</time>
      </trkpt>
      <trkpt lat="49.13805" lon="1.94294">
        <ele>65.5</ele>
        <time>2024-04-20T12:50:06Z</time>
      </trkpt>
      <trkpt lat="49.13823" lon="1.94268">
        <ele>66.5</ele>
        <time>2024-04-20T12:50:39Z</time>
      </trkpt>
      <trkpt lat="49.13812" lon="1.94245">
        <ele>64.7</ele>
        <time>2024-04-20T12:51:04Z</time>
      </trkpt>
      <trkpt lat="49.13822" lon="1.94227">
        <ele>65.8</ele>
        <time>2024-04-20T12:51:25Z</time>
      </trkpt>
      <trkpt lat="49.13859" lon="1.94145">
        <ele>67.1</ele>
        <time>2024-04-20T12:52:52Z</time>
      </trkpt>
      <trkpt lat="49.13894" lon="1.94071">
        <ele>66.8</ele>
        <time>2024-04-20T12:54:12Z</time>
      </trkpt>
      <trkpt lat="49.1394" lon="1.94006">
        <ele>67.9</ele>
        <time>2024-04-20T12:55:35Z</time>
      </trkpt>
      <trkpt lat="49.13967" lon="1.93987">
        <ele>68.3</ele>
        <time>2024-04-20T12:56:15Z</time>
      </trkpt>
      <trkpt lat="49.13994" lon="1.9398">
        <ele>69.1</ele>
        <time>2024-04-20T12:56:51Z</time>
      </trkpt>
      <trkpt lat="49.14059" lon="1.93978">
        <ele>69.7</ele>
        <time>2024-04-20T12:58:18Z</time>
      </trkpt>
      <trkpt lat="49.14215" lon="1.9398">
        <ele>69.7</ele>
        <time>2024-04-20T13:01:46Z</time>
      </trkpt>
      <trkpt lat="49.14303" lon="1.94004">
        <ele>70.6</ele>
        <time>2024-04-20T13:03:46Z</time>
      </trkpt>
      <trkpt lat="49.1433" lon="1.94004">
        <ele>71.6</ele>
        <time>2024-04-20T13:04:22Z</time>
      </trkpt>
      <trkpt lat="49.14454" lon="1.93941">
        <ele>63.3</ele>
        <time>2024-04-20T13:07:16Z</time>
      </trkpt>
      <trkpt lat="49.14475" lon="1.93938">
        <ele>62.2</ele>
        <time>2024-04-20T13:07:44Z</time>
      </trkpt>
      <trkpt lat="49.14494" lon="1.93942">
        <ele>61.3</ele>
        <time>2024-04-20T13:08:10Z</time>
      </trkpt>
      <trkpt lat="49.14565" lon="1.94003">
        <ele>58</ele>
        <time>2024-04-20T13:09:58Z</time>
      </trkpt>
      <trkpt lat="49.14587" lon="1.94002">
        <ele>58</ele>
        <time>2024-04-20T13:10:28Z</time>
      </trkpt>
      <trkpt lat="49.14608" lon="1.93993">
        <ele>58</ele>
        <time>2024-04-20T13:10:57Z</time>
      </trkpt>
      <trkpt lat="49.14635" lon="1.93955">
        <ele>61.2</ele>
        <time>2024-04-20T13:11:46Z</time>
      </trkpt>
      <trkpt lat="49.14635" lon="1.93958">
        <ele>61.4</ele>
        <time>2024-04-20T13:11:49Z</time>
      </trkpt>
      <trkpt lat="49.14651" lon="1.94237">
        <ele>73</ele>
        <time>2024-04-20T13:15:53Z</time>
      </trkpt>
      <trkpt lat="49.14778" lon="1.94396">
        <ele>86.3</ele>
        <time>2024-04-20T13:19:32Z</time>
      </trkpt>
      <trkpt lat="49.1488" lon="1.94594">
        <ele>92</ele>
        <time>2024-04-20T13:23:12Z</time>
      </trkpt>
      <trkpt lat="49.14927" lon="1.94632">
        <ele>91.5</ele>
        <time>2024-04-20T13:24:23Z</time>
      </trkpt>
      <trkpt lat="49.1497" lon="1.94672">
        <ele>92</ele>
        <time>2024-04-20T13:25:30Z</time>
      </trkpt>
      <trkpt lat="49.14968" lon="1.9469">
        <ele>92.1</ele>
        <time>2024-04-20T13:25:46Z</time>
      </trkpt>
      <trkpt lat="49.14929" lon="1.95058">
        <ele>98.1</ele>
        <time>2024-04-20T13:31:12Z</time>
      </trkpt>
      <trkpt lat="49.14929" lon="1.95069">
        <ele>98.5</ele>
        <time>2024-04-20T13:31:21Z</time>
      </trkpt>
      <trkpt lat="49.14934" lon="1.95083">
        <ele>99</ele>
        <time>2024-04-20T13:31:35Z</time>
      </trkpt>
      <trkpt lat="49.14939" lon="1.95089">
        <ele>99.2</ele>
        <time>2024-04-20T13:31:44Z</time>
      </trkpt>
      <trkpt lat="49.14983" lon="1.95094">
        <ele>99</ele>
        <time>2024-04-20T13:32:42Z</time>
      </trkpt>
      <trkpt lat="49.15039" lon="1.95118">
        <ele>98.7</ele>
        <time>2024-04-20T13:34:00Z</time>
      </trkpt>
      <trkpt lat="49.15234" lon="1.95279">
        <ele>99</ele>
        <time>2024-04-20T13:38:56Z</time>
      </trkpt>
      <trkpt lat="49.15367" lon="1.95383">
        <ele>103</ele>
        <time>2024-04-20T13:42:15Z</time>
      </trkpt>
      <trkpt lat="49.1543" lon="1.95421">
        <ele>103.5</ele>
        <time>2024-04-20T13:43:45Z</time>
      </trkpt>
      <trkpt lat="49.15466" lon="1.95469">
        <ele>103.2</ele>
        <time>2024-04-20T13:44:49Z</time>
      </trkpt>
      <trkpt lat="49.1546" lon="1.95482">
        <ele>103.8</ele>
        <time>2024-04-20T13:45:03Z</time>
      </trkpt>
      <trkpt lat="49.15468" lon="1.95494">
        <ele>103.9</ele>
        <time>2024-04-20T13:45:18Z</time>
      </trkpt>
      <trkpt lat="49.15537" lon="1.95471">
        <ele>100.7</ele>
        <time>2024-04-20T13:46:52Z</time>
      </trkpt>
      <trkpt lat="49.15578" lon="1.95474">
        <ele>99.3</ele>
        <time>2024-04-20T13:47:47Z</time>
      </trkpt>
      <trkpt lat="49.15626" lon="1.95489">
        <ele>96.5</ele>
        <time>2024-04-20T13:48:52Z</time>
      </trkpt>
      <trkpt lat="49.15716" lon="1.95477">
        <ele>94</ele>
        <time>2024-04-20T13:50:53Z</time>
      </trkpt>
      <trkpt lat="49.15861" lon="1.95443">
        <ele>102</ele>
        <time>2024-04-20T13:54:09Z</time>
      </trkpt>
      <trkpt lat="49.16244" lon="1.95301">
        <ele>108.8</ele>
        <time>2024-04-20T14:02:55Z</time>
      </trkpt>
      <trkpt lat="49.16278" lon="1.95298">
        <ele>109.7</ele>
        <time>2024-04-20T14:03:40Z</time>
      </trkpt>
      <trkpt lat="49.16378" lon="1.95301">
        <ele>108.2</ele>
        <time>2024-04-20T14:05:54Z</time>
      </trkpt>
      <trkpt lat="49.16459" lon="1.95288">
        <ele>107.4</ele>
        <time>2024-04-20T14:07:42Z</time>
      </trkpt>
      <trkpt lat="49.16557" lon="1.95277">
        <ele>109</ele>
        <time>2024-04-20T14:09:53Z</time>
      </trkpt>
      <trkpt lat="49.16697" lon="1.95281">
        <ele>114.1</ele>
        <time>2024-04-20T14:13:00Z</time>
      </trkpt>
      <trkpt lat="49.16763" lon="1.95297">
        <ele>114.4</ele>
        <time>2024-04-20T14:14:29Z</time>
      </trkpt>
      <trkpt lat="49.16868" lon="1.95322">
        <ele>110.9</ele>
        <time>2024-04-20T14:16:51Z</time>
      </trkpt>
      <trkpt lat="49.16918" lon="1.95308">
        <ele>110</ele>
        <time>2024-04-20T14:17:59Z</time>
      </trkpt>
      <trkpt lat="49.17002" lon="1.95291">
        <ele>104.8</ele>
        <time>2024-04-20T14:19:52Z</time>
      </trkpt>
      <trkpt lat="49.17068" lon="1.95282">
        <ele>100.6</ele>
        <time>2024-04-20T14:21:21Z</time>
      </trkpt>
      <trkpt lat="49.17089" lon="1.95275">
        <ele>99.9</ele>
        <time>2024-04-20T14:21:49Z</time>
      </trkpt>
      <trkpt lat="49.17139" lon="1.9525">
        <ele>100</ele>
        <time>2024-04-20T14:22:59Z</time>
      </trkpt>
      <trkpt lat="49.17147" lon="1.95248">
        <ele>100.3</ele>
        <time>2024-04-20T14:23:10Z</time>
      </trkpt>
      <trkpt lat="49.17159" lon="1.95249">
        <ele>100.7</ele>
        <time>2024-04-20T14:23:26Z</time>
      </trkpt>
      <trkpt lat="49.17271" lon="1.95312">
        <ele>105.6</ele>
        <time>2024-04-20T14:26:06Z</time>
      </trkpt>
      <trkpt lat="49.17439" lon="1.9537">
        <ele>112.4</ele>
        <time>2024-04-20T14:29:55Z</time>
      </trkpt>
      <trkpt lat="49.17462" lon="1.95376">
        <ele>112.5</ele>
        <time>2024-04-20T14:30:27Z</time>
      </trkpt>
      <trkpt lat="49.17485" lon="1.95376">
        <ele>112.1</ele>
        <time>2024-04-20T14:30:57Z</time>
      </trkpt>
      <trkpt lat="49.17521" lon="1.95365">
        <ele>111</ele>
        <time>2024-04-20T14:31:46Z</time>
      </trkpt>
      <trkpt lat="49.17546" lon="1.95351">
        <ele>110.2</ele>
        <time>2024-04-20T14:32:22Z</time>
      </trkpt>
      <trkpt lat="49.17564" lon="1.95337">
        <ele>109.4</ele>
        <time>2024-04-20T14:32:49Z</time>
      </trkpt>
      <trkpt lat="49.17626" lon="1.9528">
        <ele>105</ele>
        <time>2024-04-20T14:34:25Z</time>
      </trkpt>
      <trkpt lat="49.1764" lon="1.9527">
        <ele>104</ele>
        <time>2024-04-20T14:34:46Z</time>
      </trkpt>
      <trkpt lat="49.1766" lon="1.95264">
        <ele>103.2</ele>
        <time>2024-04-20T14:35:13Z</time>
      </trkpt>
      <trkpt lat="49.17678" lon="1.95263">
        <ele>102.4</ele>
        <time>2024-04-20T14:35:37Z</time>
      </trkpt>
      <trkpt lat="49.1775" lon="1.95266">
        <ele>100.6</ele>
        <time>2024-04-20T14:37:13Z</time>
      </trkpt>
      <trkpt lat="49.17766" lon="1.95263">
        <ele>100.2</ele>
        <time>2024-04-20T14:37:35Z</time>
      </trkpt>
      <trkpt lat="49.17784" lon="1.95255">
        <ele>100</ele>
        <time>2024-04-20T14:38:00Z</time>
      </trkpt>
      <trkpt lat="49.17805" lon="1.95239">
        <ele>100</ele>
        <time>2024-04-20T14:38:31Z</time>
      </trkpt>
      <trkpt lat="49.17825" lon="1.95218">
        <ele>99.8</ele>
        <time>2024-04-20T14:39:03Z</time>
      </trkpt>
      <trkpt lat="49.17839" lon="1.95206">
        <ele>99.5</ele>
        <time>2024-04-20T14:39:25Z</time>
      </trkpt>
      <trkpt lat="49.17852" lon="1.952">
        <ele>99.7</ele>
        <time>2024-04-20T14:39:43Z</time>
      </trkpt>
      <trkpt lat="49.17887" lon="1.95204">
        <ele>100.3</ele>
        <time>2024-04-20T14:40:30Z</time>
      </trkpt>
      <trkpt lat="49.17944" lon="1.95183">
        <ele>102</ele>
        <time>2024-04-20T14:41:48Z</time>
      </trkpt>
      <trkpt lat="49.17955" lon="1.95181">
        <ele>102.8</ele>
        <time>2024-04-20T14:42:03Z</time>
      </trkpt>
      <trkpt lat="49.1799" lon="1.95198">
        <ele>104.1</ele>
        <time>2024-04-20T14:42:52Z</time>
      </trkpt>
      <trkpt lat="49.17993" lon="1.95199">
        <ele>104.1</ele>
        <time>2024-04-20T14:42:56Z</time>
      </trkpt>
      <trkpt lat="49.17998" lon="1.95201">
        <ele>104.2</ele>
        <time>2024-04-20T14:43:03Z</time>
      </trkpt>
      <trkpt lat="49.18053" lon="1.9493">
        <ele>99</ele>
        <time>2024-04-20T14:47:10Z</time>
      </trkpt>
      <trkpt lat="49.18062" lon="1.94898">
        <ele>97.8</ele>
        <time>2024-04-20T14:47:41Z</time>
      </trkpt>
      <trkpt lat="49.18071" lon="1.94895">
        <ele>97</ele>
        <time>2024-04-20T14:47:53Z</time>
      </trkpt>
      <trkpt lat="49.1808" lon="1.94905">
        <ele>96.3</ele>
        <time>2024-04-20T14:48:08Z</time>
      </trkpt>
      <trkpt lat="49.1809" lon="1.94964">
        <ele>94.9</ele>
        <time>2024-04-20T14:49:01Z</time>
      </trkpt>
      <trkpt lat="49.18097" lon="1.9503">
        <ele>95.1</ele>
        <time>2024-04-20T14:49:59Z</time>
      </trkpt>
      <trkpt lat="49.18106" lon="1.95056">
        <ele>93.9</ele>
        <time>2024-04-20T14:50:25Z</time>
      </trkpt>
      <trkpt lat="49.18121" lon="1.95076">
        <ele>91.9</ele>
        <time>2024-04-20T14:50:52Z</time>
      </trkpt>
      <trkpt lat="49.1817" lon="1.95129">
        <ele>85.9</ele>
        <time>2024-04-20T14:52:12Z</time>
      </trkpt>
      <trkpt lat="49.18223" lon="1.95177">
        <ele>81.7</ele>
        <time>2024-04-20T14:53:34Z</time>
      </trkpt>
      <trkpt lat="49.18253" lon="1.95201">
        <ele>80.1</ele>
        <time>2024-04-20T14:54:19Z</time>
      </trkpt>
      <trkpt lat="49.18273" lon="1.95224">
        <ele>80.3</ele>
        <time>2024-04-20T14:54:52Z</time>
      </trkpt>
      <trkpt lat="49.183" lon="1.95249">
        <ele>80.4</ele>
        <time>2024-04-20T14:55:34Z</time>
      </trkpt>
      <trkpt lat="49.18318" lon="1.95223">
        <ele>80</ele>
        <time>2024-04-20T14:56:08Z</time>
      </trkpt>
      <trkpt lat="49.18337" lon="1.95189">
        <ele>82.4</ele>
        <time>2024-04-20T14:56:47Z</time>
      </trkpt>
      <trkpt lat="49.18342" lon="1.95174">
        <ele>85.1</ele>
        <time>2024-04-20T14:57:01Z</time>
      </trkpt>
      <trkpt lat="49.18342" lon="1.95161">
        <ele>86.5</ele>
        <time>2024-04-20T14:57:13Z</time>
      </trkpt>
      <trkpt lat="49.18296" lon="1.95017">
        <ele>93.4</ele>
        <time>2024-04-20T14:59:32Z</time>
      </trkpt>
      <trkpt lat="49.18289" lon="1.94987">
        <ele>93.9</ele>
        <time>2024-04-20T15:00:00Z</time>
      </trkpt>
      <trkpt lat="49.18288" lon="1.94976">
        <ele>94</ele>
        <time>2024-04-20T15:00:10Z</time>
      </trkpt>
      <trkpt lat="49.18297" lon="1.94917">
        <ele>95.8</ele>
        <time>2024-04-20T15:01:03Z</time>
      </trkpt>
      <trkpt lat="49.1831" lon="1.94893">
        <ele>97.3</ele>
        <time>2024-04-20T15:01:30Z</time>
      </trkpt>
      <trkpt lat="49.18328" lon="1.94871">
        <ele>98.6</ele>
        <time>2024-04-20T15:02:01Z</time>
      </trkpt>
      <trkpt lat="49.18419" lon="1.94815">
        <ele>104.1</ele>
        <time>2024-04-20T15:04:12Z</time>
      </trkpt>
      <trkpt lat="49.18468" lon="1.94778">
        <ele>105.8</ele>
        <time>2024-04-20T15:05:24Z</time>
      </trkpt>
      <trkpt lat="49.18505" lon="1.94737">
        <ele>108.4</ele>
        <time>2024-04-20T15:06:25Z</time>
      </trkpt>
      <trkpt lat="49.18446" lon="1.94631">
        <ele>105.1</ele>
        <time>2024-04-20T15:08:27Z</time>
      </trkpt>
      <trkpt lat="49.18337" lon="1.94423">
        <ele>106</ele>
        <time>2024-04-20T15:12:19Z</time>
      </trkpt>
      <trkpt lat="49.18249" lon="1.94266">
        <ele>104</ele>
        <time>2024-04-20T15:15:20Z</time>
      </trkpt>
      <trkpt lat="49.18206" lon="1.94182">
        <ele>102.4</ele>
        <time>2024-04-20T15:16:53Z</time>
      </trkpt>
      <trkpt lat="49.18185" lon="1.94144">
        <ele>102.5</ele>
        <time>2024-04-20T15:17:36Z</time>
      </trkpt>
      <trkpt lat="49.18113" lon="1.94029">
        <ele>104.9</ele>
        <time>2024-04-20T15:19:55Z</time>
      </trkpt>
      <trkpt lat="49.18086" lon="1.93989">
        <ele>105</ele>
        <time>2024-04-20T15:20:45Z</time>
      </trkpt>
      <trkpt lat="49.18056" lon="1.9395">
        <ele>105</ele>
        <time>2024-04-20T15:21:38Z</time>
      </trkpt>
      <trkpt lat="49.17959" lon="1.93809">
        <ele>102.6</ele>
        <time>2024-04-20T15:24:36Z</time>
      </trkpt>
      <trkpt lat="49.17921" lon="1.9376">
        <ele>101.1</ele>
        <time>2024-04-20T15:25:43Z</time>
      </trkpt>
      <trkpt lat="49.17886" lon="1.93698">
        <ele>99.9</ele>
        <time>2024-04-20T15:26:54Z</time>
      </trkpt>
      <trkpt lat="49.17825" lon="1.93515">
        <ele>97</ele>
        <time>2024-04-20T15:29:53Z</time>
      </trkpt>
      <trkpt lat="49.17819" lon="1.93419">
        <ele>95.5</ele>
        <time>2024-04-20T15:31:18Z</time>
      </trkpt>
      <trkpt lat="49.1783" lon="1.93321">
        <ele>91.2</ele>
        <time>2024-04-20T15:32:44Z</time>
      </trkpt>
      <trkpt lat="49.17836" lon="1.93299">
        <ele>89.2</ele>
        <time>2024-04-20T15:33:05Z</time>
      </trkpt>
      <trkpt lat="49.17841" lon="1.93288">
        <ele>87.8</ele>
        <time>2024-04-20T15:33:17Z</time>
      </trkpt>
      <trkpt lat="49.17848" lon="1.93284">
        <ele>87.1</ele>
        <time>2024-04-20T15:33:27Z</time>
      </trkpt>
      <trkpt lat="49.17917" lon="1.93294">
        <ele>86.8</ele>
        <time>2024-04-20T15:34:59Z</time>
      </trkpt>
      <trkpt lat="49.17929" lon="1.93292">
        <ele>86.8</ele>
        <time>2024-04-20T15:35:15Z</time>
      </trkpt>
      <trkpt lat="49.179" lon="1.93275">
        <ele>84.4</ele>
        <time>2024-04-20T15:35:57Z</time>
      </trkpt>
      <trkpt lat="49.17929" lon="1.93292">
        <ele>86.8</ele>
        <time>2024-04-20T15:36:38Z</time>
      </trkpt>
      <trkpt lat="49.1797" lon="1.93301">
        <ele>89.3</ele>
        <time>2024-04-20T15:37:33Z</time>
      </trkpt>
      <trkpt lat="49.18175" lon="1.93322">
        <ele>96.5</ele>
        <time>2024-04-20T15:42:08Z</time>
      </trkpt>
      <trkpt lat="49.18424" lon="1.93083">
        <ele>102.3</ele>
        <time>2024-04-20T15:48:40Z</time>
      </trkpt>
      <trkpt lat="49.18616" lon="1.92977">
        <ele>102.2</ele>
        <time>2024-04-20T15:53:12Z</time>
      </trkpt>
      <trkpt lat="49.18748" lon="1.92939">
        <ele>101.7</ele>
        <time>2024-04-20T15:56:12Z</time>
      </trkpt>
      <trkpt lat="49.18762" lon="1.92963">
        <ele>102.8</ele>
        <time>2024-04-20T15:56:40Z</time>
      </trkpt>
      <trkpt lat="49.19004" lon="1.92785">
        <ele>107.1</ele>
        <time>2024-04-20T16:02:38Z</time>
      </trkpt>
      <trkpt lat="49.19058" lon="1.92722">
        <ele>102.8</ele>
        <time>2024-04-20T16:04:09Z</time>
      </trkpt>
      <trkpt lat="49.19111" lon="1.92693">
        <ele>96.9</ele>
        <time>2024-04-20T16:05:24Z</time>
      </trkpt>
      <trkpt lat="49.19175" lon="1.92717">
        <ele>84.8</ele>
        <time>2024-04-20T16:06:52Z</time>
      </trkpt>
      <trkpt lat="49.19215" lon="1.92749">
        <ele>79.3</ele>
        <time>2024-04-20T16:07:52Z</time>
      </trkpt>
      <trkpt lat="49.19229" lon="1.92745">
        <ele>79.6</ele>
        <time>2024-04-20T16:08:11Z</time>
      </trkpt>
      <trkpt lat="49.19263" lon="1.9278">
        <ele>87.2</ele>
        <time>2024-04-20T16:09:06Z</time>
      </trkpt>
      <trkpt lat="49.19309" lon="1.92855">
        <ele>100.5</ele>
        <time>2024-04-20T16:10:35Z</time>
      </trkpt>
      <trkpt lat="49.19317" lon="1.92865">
        <ele>101.6</ele>
        <time>2024-04-20T16:10:49Z</time>
      </trkpt>
      <trkpt lat="49.19353" lon="1.92879">
        <ele>106.4</ele>
        <time>2024-04-20T16:11:39Z</time>
      </trkpt>
      <trkpt lat="49.19376" lon="1.92894">
        <ele>108.9</ele>
        <time>2024-04-20T16:12:12Z</time>
      </trkpt>
      <trkpt lat="49.19402" lon="1.92914">
        <ele>111.6</ele>
        <time>2024-04-20T16:12:51Z</time>
      </trkpt>
      <trkpt lat="49.19429" lon="1.92931">
        <ele>115.3</ele>
        <time>2024-04-20T16:13:30Z</time>
      </trkpt>
      <trkpt lat="49.19444" lon="1.92933">
        <ele>117.3</ele>
        <time>2024-04-20T16:13:50Z</time>
      </trkpt>
      <trkpt lat="49.19496" lon="1.92931">
        <ele>123.1</ele>
        <time>2024-04-20T16:14:59Z</time>
      </trkpt>
      <trkpt lat="49.19501" lon="1.92931">
        <ele>123.5</ele>
        <time>2024-04-20T16:15:06Z</time>
      </trkpt>
      <trkpt lat="49.19523" lon="1.92941">
        <ele>124</ele>
        <time>2024-04-20T16:15:37Z</time>
      </trkpt>
      <trkpt lat="49.19539" lon="1.9294">
        <ele>124.2</ele>
        <time>2024-04-20T16:15:58Z</time>
      </trkpt>
      <trkpt lat="49.19534" lon="1.92903">
        <ele>125.1</ele>
        <time>2024-04-20T16:16:31Z</time>
      </trkpt>
      <trkpt lat="49.19531" lon="1.92836">
        <ele>126.1</ele>
        <time>2024-04-20T16:17:29Z</time>
      </trkpt>
      <trkpt lat="49.19532" lon="1.9283">
        <ele>126.2</ele>
        <time>2024-04-20T16:17:35Z</time>
      </trkpt>
      <trkpt lat="49.19537" lon="1.92777">
        <ele>126</ele>
        <time>2024-04-20T16:18:21Z</time>
      </trkpt>
      <trkpt lat="49.19535" lon="1.92761">
        <ele>126</ele>
        <time>2024-04-20T16:18:36Z</time>
      </trkpt>
      <trkpt lat="49.19498" lon="1.92632">
        <ele>125.2</ele>
        <time>2024-04-20T16:20:39Z</time>
      </trkpt>
      <trkpt lat="49.19494" lon="1.92633">
        <ele>125</ele>
        <time>2024-04-20T16:20:44Z</time>
      </trkpt>
      <trkpt lat="49.19463" lon="1.92619">
        <ele>123.3</ele>
        <time>2024-04-20T16:21:27Z</time>
      </trkpt>
      <trkpt lat="49.1945" lon="1.9261">
        <ele>122.4</ele>
        <time>2024-04-20T16:21:46Z</time>
      </trkpt>
      <trkpt lat="49.19437" lon="1.9259">
        <ele>120.1</ele>
        <time>2024-04-20T16:22:11Z</time>
      </trkpt>
      <trkpt lat="49.19419" lon="1.92564">
        <ele>117.4</ele>
        <time>2024-04-20T16:22:44Z</time>
      </trkpt>
      <trkpt lat="49.19238" lon="1.92428">
        <ele>101.3</ele>
        <time>2024-04-20T16:27:13Z</time>
      </trkpt>
      <trkpt lat="49.19077" lon="1.92247">
        <ele>88</ele>
        <time>2024-04-20T16:31:39Z</time>
      </trkpt>
      <trkpt lat="49.19008" lon="1.92181">
        <ele>82.5</ele>
        <time>2024-04-20T16:33:28Z</time>
      </trkpt>
      <trkpt lat="49.18975" lon="1.92143">
        <ele>80.2</ele>
        <time>2024-04-20T16:34:23Z</time>
      </trkpt>
      <trkpt lat="49.18947" lon="1.92093">
        <ele>76.4</ele>
        <time>2024-04-20T16:35:21Z</time>
      </trkpt>
      <trkpt lat="49.18947" lon="1.9209">
        <ele>76.5</ele>
        <time>2024-04-20T16:35:23Z</time>
      </trkpt>
      <trkpt lat="49.18943" lon="1.92173">
        <ele>72.9</ele>
        <time>2024-04-20T16:36:36Z</time>
      </trkpt>
      <trkpt lat="49.18945" lon="1.92173">
        <ele>73.1</ele>
        <time>2024-04-20T16:36:38Z</time>
      </trkpt>
      <trkpt lat="49.18943" lon="1.92173">
        <ele>72.9</ele>
        <time>2024-04-20T16:36:41Z</time>
      </trkpt>
      <trkpt lat="49.18947" lon="1.92093">
        <ele>76.4</ele>
        <time>2024-04-20T16:37:51Z</time>
      </trkpt>
      <trkpt lat="49.18959" lon="1.91996">
        <ele>85.2</ele>
        <time>2024-04-20T16:39:17Z</time>
      </trkpt>
      <trkpt lat="49.18956" lon="1.91946">
        <ele>83.6</ele>
        <time>2024-04-20T16:40:01Z</time>
      </trkpt>
      <trkpt lat="49.1896" lon="1.91922">
        <ele>81.7</ele>
        <time>2024-04-20T16:40:23Z</time>
      </trkpt>
      <trkpt lat="49.18957" lon="1.91907">
        <ele>79.4</ele>
        <time>2024-04-20T16:40:36Z</time>
      </trkpt>
      <trkpt lat="49.1898" lon="1.91836">
        <ele>79.3</ele>
        <time>2024-04-20T16:41:45Z</time>
      </trkpt>
      <trkpt lat="49.18993" lon="1.91781">
        <ele>75.4</ele>
        <time>2024-04-20T16:42:36Z</time>
      </trkpt>
      <trkpt lat="49.19058" lon="1.91701">
        <ele>75.5</ele>
        <time>2024-04-20T16:44:28Z</time>
      </trkpt>
      <trkpt lat="49.19054" lon="1.91688">
        <ele>74.7</ele>
        <time>2024-04-20T16:44:40Z</time>
      </trkpt>
      <trkpt lat="49.18968" lon="1.91543">
        <ele>77.1</ele>
        <time>2024-04-20T16:47:31Z</time>
      </trkpt>
      <trkpt lat="49.18959" lon="1.91546">
        <ele>78.3</ele>
        <time>2024-04-20T16:47:43Z</time>
      </trkpt>
      <trkpt lat="49.18956" lon="1.91544">
        <ele>79.1</ele>
        <time>2024-04-20T16:47:48Z</time>
      </trkpt>
      <trkpt lat="49.18948" lon="1.91536">
        <ele>81.8</ele>
        <time>2024-04-20T16:48:00Z</time>
      </trkpt>
      <trkpt lat="49.18932" lon="1.9155">
        <ele>82.3</ele>
        <time>2024-04-20T16:48:25Z</time>
      </trkpt>
      <trkpt lat="49.18855" lon="1.91605">
        <ele>88.6</ele>
        <time>2024-04-20T16:50:18Z</time>
      </trkpt>
      <trkpt lat="49.18824" lon="1.91641">
        <ele>91.1</ele>
        <time>2024-04-20T16:51:10Z</time>
      </trkpt>
      <trkpt lat="49.18737" lon="1.91778">
        <ele>97.9</ele>
        <time>2024-04-20T16:53:57Z</time>
      </trkpt>
      <trkpt lat="49.18715" lon="1.91795">
        <ele>99.4</ele>
        <time>2024-04-20T16:54:30Z</time>
      </trkpt>
      <trkpt lat="49.18694" lon="1.9179">
        <ele>100.6</ele>
        <time>2024-04-20T16:54:58Z</time>
      </trkpt>
      <trkpt lat="49.18665" lon="1.91809">
        <ele>100.9</ele>
        <time>2024-04-20T16:55:40Z</time>
      </trkpt>
      <trkpt lat="49.18618" lon="1.91872">
        <ele>100</ele>
        <time>2024-04-20T16:57:04Z</time>
      </trkpt>
      <trkpt lat="49.18577" lon="1.91918">
        <ele>98.7</ele>
        <time>2024-04-20T16:58:12Z</time>
      </trkpt>
      <trkpt lat="49.18541" lon="1.91967">
        <ele>96.7</ele>
        <time>2024-04-20T16:59:16Z</time>
      </trkpt>
      <trkpt lat="49.18458" lon="1.92168">
        <ele>94.9</ele>
        <time>2024-04-20T17:02:43Z</time>
      </trkpt>
      <trkpt lat="49.18377" lon="1.92277">
        <ele>93.9</ele>
        <time>2024-04-20T17:05:07Z</time>
      </trkpt>
      <trkpt lat="49.18324" lon="1.92358">
        <ele>95.8</ele>
        <time>2024-04-20T17:06:47Z</time>
      </trkpt>
      <trkpt lat="49.1829" lon="1.92403">
        <ele>95.4</ele>
        <time>2024-04-20T17:07:47Z</time>
      </trkpt>
      <trkpt lat="49.18214" lon="1.92483">
        <ele>96.6</ele>
        <time>2024-04-20T17:09:50Z</time>
      </trkpt>
      <trkpt lat="49.18164" lon="1.92543">
        <ele>96</ele>
        <time>2024-04-20T17:11:15Z</time>
      </trkpt>
      <trkpt lat="49.18124" lon="1.92629">
        <ele>93.1</ele>
        <time>2024-04-20T17:12:47Z</time>
      </trkpt>
      <trkpt lat="49.18106" lon="1.92719">
        <ele>91.6</ele>
        <time>2024-04-20T17:14:09Z</time>
      </trkpt>
      <trkpt lat="49.18077" lon="1.92814">
        <ele>89.2</ele>
        <time>2024-04-20T17:15:41Z</time>
      </trkpt>
      <trkpt lat="49.1804" lon="1.92861">
        <ele>87.7</ele>
        <time>2024-04-20T17:16:45Z</time>
      </trkpt>
      <trkpt lat="49.17987" lon="1.92898">
        <ele>85.6</ele>
        <time>2024-04-20T17:18:03Z</time>
      </trkpt>
      <trkpt lat="49.17936" lon="1.9293">
        <ele>84.6</ele>
        <time>2024-04-20T17:19:16Z</time>
      </trkpt>
      <trkpt lat="49.17905" lon="1.92932">
        <ele>83</ele>
        <time>2024-04-20T17:19:58Z</time>
      </trkpt>
      <trkpt lat="49.17824" lon="1.92896">
        <ele>77</ele>
        <time>2024-04-20T17:21:50Z</time>
      </trkpt>
      <trkpt lat="49.1778" lon="1.92886">
        <ele>71.8</ele>
        <time>2024-04-20T17:22:49Z</time>
      </trkpt>
      <trkpt lat="49.1775" lon="1.92872">
        <ele>72.4</ele>
        <time>2024-04-20T17:23:31Z</time>
      </trkpt>
      <trkpt lat="49.17715" lon="1.92873">
        <ele>71.4</ele>
        <time>2024-04-20T17:24:18Z</time>
      </trkpt>
      <trkpt lat="49.17669" lon="1.92886">
        <ele>70.6</ele>
        <time>2024-04-20T17:25:20Z</time>
      </trkpt>
      <trkpt lat="49.17626" lon="1.92906">
        <ele>72</ele>
        <time>2024-04-20T17:26:20Z</time>
      </trkpt>
      <trkpt lat="49.17603" lon="1.92913">
        <ele>71.4</ele>
        <time>2024-04-20T17:26:52Z</time>
      </trkpt>
      <trkpt lat="49.17583" lon="1.92904">
        <ele>71.8</ele>
        <time>2024-04-20T17:27:20Z</time>
      </trkpt>
      <trkpt lat="49.1753" lon="1.92847">
        <ele>72.5</ele>
        <time>2024-04-20T17:28:46Z</time>
      </trkpt>
      <trkpt lat="49.175" lon="1.92831">
        <ele>70.3</ele>
        <time>2024-04-20T17:29:28Z</time>
      </trkpt>
      <trkpt lat="49.17446" lon="1.92823">
        <ele>71.7</ele>
        <time>2024-04-20T17:30:41Z</time>
      </trkpt>
      <trkpt lat="49.17474" lon="1.92967">
        <ele>70.6</ele>
        <time>2024-04-20T17:32:52Z</time>
      </trkpt>
      <trkpt lat="49.17504" lon="1.93046">
        <ele>69.4</ele>
        <time>2024-04-20T17:34:12Z</time>
      </trkpt>
      <trkpt lat="49.17521" lon="1.93076">
        <ele>69</ele>
        <time>2024-04-20T17:34:46Z</time>
      </trkpt>
      <trkpt lat="49.17532" lon="1.93095">
        <ele>68.9</ele>
        <time>2024-04-20T17:35:08Z</time>
      </trkpt>
      <trkpt lat="49.17496" lon="1.93138">
        <ele>70.2</ele>
        <time>2024-04-20T17:36:09Z</time>
      </trkpt>
      <trkpt lat="49.17458" lon="1.93177">
        <ele>69.9</ele>
        <time>2024-04-20T17:37:10Z</time>
      </trkpt>
      <trkpt lat="49.17402" lon="1.93191">
        <ele>69</ele>
        <time>2024-04-20T17:38:26Z</time>
      </trkpt>
      <trkpt lat="49.17362" lon="1.93188">
        <ele>69.4</ele>
        <time>2024-04-20T17:39:20Z</time>
      </trkpt>
      <trkpt lat="49.1734" lon="1.93193">
        <ele>67.6</ele>
        <time>2024-04-20T17:39:49Z</time>
      </trkpt>
      <trkpt lat="49.17285" lon="1.9323">
        <ele>69.3</ele>
        <time>2024-04-20T17:41:09Z</time>
      </trkpt>
      <trkpt lat="49.17214" lon="1.93262">
        <ele>69.8</ele>
        <time>2024-04-20T17:42:48Z</time>
      </trkpt>
      <trkpt lat="49.17154" lon="1.93306">
        <ele>70.9</ele>
        <time>2024-04-20T17:44:17Z</time>
      </trkpt>
      <trkpt lat="49.17133" lon="1.93314">
        <ele>71.1</ele>
        <time>2024-04-20T17:44:46Z</time>
      </trkpt>
      <trkpt lat="49.17125" lon="1.93315">
        <ele>71</ele>
        <time>2024-04-20T17:44:57Z</time>
      </trkpt>
      <trkpt lat="49.17117" lon="1.93312">
        <ele>71.3</ele>
        <time>2024-04-20T17:45:08Z</time>
      </trkpt>
      <trkpt lat="49.17015" lon="1.93254">
        <ele>71.5</ele>
        <time>2024-04-20T17:47:33Z</time>
      </trkpt>
      <trkpt lat="49.16982" lon="1.93246">
        <ele>72.3</ele>
        <time>2024-04-20T17:48:17Z</time>
      </trkpt>
      <trkpt lat="49.16924" lon="1.93253">
        <ele>75.5</ele>
        <time>2024-04-20T17:49:35Z</time>
      </trkpt>
      <trkpt lat="49.16872" lon="1.93274">
        <ele>82</ele>
        <time>2024-04-20T17:50:47Z</time>
      </trkpt>
      <trkpt lat="49.16814" lon="1.93312">
        <ele>87.9</ele>
        <time>2024-04-20T17:52:11Z</time>
      </trkpt>
      <trkpt lat="49.16814" lon="1.93311">
        <ele>87.9</ele>
        <time>2024-04-20T17:52:12Z</time>
      </trkpt>
      <trkpt lat="49.16814" lon="1.93312">
        <ele>87.9</ele>
        <time>2024-04-20T17:52:13Z</time>
      </trkpt>
      <trkpt lat="49.16799" lon="1.93364">
        <ele>87.4</ele>
        <time>2024-04-20T17:53:02Z</time>
      </trkpt>
      <trkpt lat="49.16791" lon="1.93422">
        <ele>86.5</ele>
        <time>2024-04-20T17:53:54Z</time>
      </trkpt>
      <trkpt lat="49.16789" lon="1.93455">
        <ele>85.9</ele>
        <time>2024-04-20T17:54:23Z</time>
      </trkpt>
      <trkpt lat="49.16792" lon="1.93515">
        <ele>81.2</ele>
        <time>2024-04-20T17:55:15Z</time>
      </trkpt>
      <trkpt lat="49.16783" lon="1.9355">
        <ele>78.3</ele>
        <time>2024-04-20T17:55:48Z</time>
      </trkpt>
      <trkpt lat="49.16782" lon="1.93562">
        <ele>76.3</ele>
        <time>2024-04-20T17:55:59Z</time>
      </trkpt>
      <trkpt lat="49.16791" lon="1.93629">
        <ele>69.3</ele>
        <time>2024-04-20T17:56:59Z</time>
      </trkpt>
      <trkpt lat="49.16796" lon="1.93643">
        <ele>69.9</ele>
        <time>2024-04-20T17:57:12Z</time>
      </trkpt>
      <trkpt lat="49.16814" lon="1.93669">
        <ele>71.6</ele>
        <time>2024-04-20T17:57:45Z</time>
      </trkpt>
      <trkpt lat="49.16852" lon="1.93783">
        <ele>69.7</ele>
        <time>2024-04-20T17:59:37Z</time>
      </trkpt>
      <trkpt lat="49.16884" lon="1.93847">
        <ele>66.5</ele>
        <time>2024-04-20T18:00:47Z</time>
      </trkpt>
      <trkpt lat="49.16884" lon="1.93846">
        <ele>66.5</ele>
        <time>2024-04-20T18:00:48Z</time>
      </trkpt>
      <trkpt lat="49.16884" lon="1.93847">
        <ele>66.5</ele>
        <time>2024-04-20T18:00:49Z</time>
      </trkpt>
      <trkpt lat="49.16879" lon="1.93858">
        <ele>66.1</ele>
        <time>2024-04-20T18:01:01Z</time>
      </trkpt>
      <trkpt lat="49.1687" lon="1.93855">
        <ele>66.2</ele>
        <time>2024-04-20T18:01:13Z</time>
      </trkpt>
      <trkpt lat="49.16843" lon="1.93831">
        <ele>65.9</ele>
        <time>2024-04-20T18:01:55Z</time>
      </trkpt>
      <trkpt lat="49.16838" lon="1.9386">
        <ele>64.4</ele>
        <time>2024-04-20T18:02:21Z</time>
      </trkpt>
      <trkpt lat="49.16837" lon="1.93866">
        <ele>64.1</ele>
        <time>2024-04-20T18:02:26Z</time>
      </trkpt>
      <trkpt lat="49.16826" lon="1.93917">
        <ele>63</ele>
        <time>2024-04-20T18:03:13Z</time>
      </trkpt>
      <trkpt lat="49.16808" lon="1.93967">
        <ele>63</ele>
        <time>2024-04-20T18:04:03Z</time>
      </trkpt>
      <trkpt lat="49.16791" lon="1.94002">
        <ele>63.5</ele>
        <time>2024-04-20T18:04:41Z</time>
      </trkpt>
      <trkpt lat="49.16773" lon="1.94028">
        <ele>64.4</ele>
        <time>2024-04-20T18:05:14Z</time>
      </trkpt>
      <trkpt lat="49.16754" lon="1.94046">
        <ele>66.9</ele>
        <time>2024-04-20T18:05:44Z</time>
      </trkpt>
      <trkpt lat="49.16752" lon="1.94045">
        <ele>67.1</ele>
        <time>2024-04-20T18:05:47Z</time>
      </trkpt>
      <trkpt lat="49.16719" lon="1.94008">
        <ele>70.8</ele>
        <time>2024-04-20T18:06:41Z</time>
      </trkpt>
      <trkpt lat="49.16658" lon="1.93921">
        <ele>70.6</ele>
        <time>2024-04-20T18:08:33Z</time>
      </trkpt>
      <trkpt lat="49.1665" lon="1.93915">
        <ele>70.6</ele>
        <time>2024-04-20T18:08:45Z</time>
      </trkpt>
      <trkpt lat="49.16626" lon="1.93905">
        <ele>72.4</ele>
        <time>2024-04-20T18:09:18Z</time>
      </trkpt>
      <trkpt lat="49.16548" lon="1.93879">
        <ele>73.7</ele>
        <time>2024-04-20T18:11:04Z</time>
      </trkpt>
      <trkpt lat="49.16483" lon="1.93869">
        <ele>69.2</ele>
        <time>2024-04-20T18:12:31Z</time>
      </trkpt>
      <trkpt lat="49.16457" lon="1.93855">
        <ele>67.7</ele>
        <time>2024-04-20T18:13:08Z</time>
      </trkpt>
      <trkpt lat="49.16446" lon="1.93849">
        <ele>67.2</ele>
        <time>2024-04-20T18:13:24Z</time>
      </trkpt>
      <trkpt lat="49.16394" lon="1.93828">
        <ele>66.9</ele>
        <time>2024-04-20T18:14:36Z</time>
      </trkpt>
      <trkpt lat="49.16373" lon="1.93829">
        <ele>67.4</ele>
        <time>2024-04-20T18:15:04Z</time>
      </trkpt>
      <trkpt lat="49.16361" lon="1.93832">
        <ele>67.8</ele>
        <time>2024-04-20T18:15:20Z</time>
      </trkpt>
      <trkpt lat="49.16335" lon="1.93833">
        <ele>68</ele>
        <time>2024-04-20T18:15:55Z</time>
      </trkpt>
      <trkpt lat="49.16296" lon="1.93853">
        <ele>69.1</ele>
        <time>2024-04-20T18:16:49Z</time>
      </trkpt>
      <trkpt lat="49.16281" lon="1.93864">
        <ele>68.2</ele>
        <time>2024-04-20T18:17:12Z</time>
      </trkpt>
      <trkpt lat="49.16253" lon="1.93895">
        <ele>68.8</ele>
        <time>2024-04-20T18:17:58Z</time>
      </trkpt>
      <trkpt lat="49.16244" lon="1.93904">
        <ele>69.2</ele>
        <time>2024-04-20T18:18:12Z</time>
      </trkpt>
      <trkpt lat="49.16238" lon="1.9391">
        <ele>69.4</ele>
        <time>2024-04-20T18:18:22Z</time>
      </trkpt>
      <trkpt lat="49.16239" lon="1.93913">
        <ele>69.9</ele>
        <time>2024-04-20T18:18:25Z</time>
      </trkpt>
      <trkpt lat="49.16243" lon="1.93922">
        <ele>71.8</ele>
        <time>2024-04-20T18:18:34Z</time>
      </trkpt>
      <trkpt lat="49.16253" lon="1.93938">
        <ele>76.4</ele>
        <time>2024-04-20T18:18:53Z</time>
      </trkpt>
      <trkpt lat="49.16255" lon="1.9395">
        <ele>78.7</ele>
        <time>2024-04-20T18:19:04Z</time>
      </trkpt>
      <trkpt lat="49.16238" lon="1.93976">
        <ele>78.3</ele>
        <time>2024-04-20T18:19:36Z</time>
      </trkpt>
      <trkpt lat="49.16226" lon="1.93985">
        <ele>77.1</ele>
        <time>2024-04-20T18:19:54Z</time>
      </trkpt>
      <trkpt lat="49.16208" lon="1.93988">
        <ele>75.6</ele>
        <time>2024-04-20T18:20:18Z</time>
      </trkpt>
      <trkpt lat="49.16165" lon="1.93985">
        <ele>72.2</ele>
        <time>2024-04-20T18:21:16Z</time>
      </trkpt>
      <trkpt lat="49.16128" lon="1.93999">
        <ele>70.1</ele>
        <time>2024-04-20T18:22:07Z</time>
      </trkpt>
      <trkpt lat="49.16113" lon="1.94">
        <ele>69.1</ele>
        <time>2024-04-20T18:22:27Z</time>
      </trkpt>
      <trkpt lat="49.16103" lon="1.93998">
        <ele>68.8</ele>
        <time>2024-04-20T18:22:40Z</time>
      </trkpt>
      <trkpt lat="49.16085" lon="1.93988">
        <ele>68.1</ele>
        <time>2024-04-20T18:23:06Z</time>
      </trkpt>
      <trkpt lat="49.1606" lon="1.93959">
        <ele>66.4</ele>
        <time>2024-04-20T18:23:48Z</time>
      </trkpt>
      <trkpt lat="49.16047" lon="1.93935">
        <ele>65.7</ele>
        <time>2024-04-20T18:24:15Z</time>
      </trkpt>
      <trkpt lat="49.16045" lon="1.93937">
        <ele>65.7</ele>
        <time>2024-04-20T18:24:18Z</time>
      </trkpt>
      <trkpt lat="49.16042" lon="1.9393">
        <ele>65.5</ele>
        <time>2024-04-20T18:24:25Z</time>
      </trkpt>
      <trkpt lat="49.16038" lon="1.93931">
        <ele>65.5</ele>
        <time>2024-04-20T18:24:31Z</time>
      </trkpt>
      <trkpt lat="49.16042" lon="1.9393">
        <ele>65.5</ele>
        <time>2024-04-20T18:24:36Z</time>
      </trkpt>
      <trkpt lat="49.16045" lon="1.93937">
        <ele>65.7</ele>
        <time>2024-04-20T18:24:43Z</time>
      </trkpt>
      <trkpt lat="49.16047" lon="1.93935">
        <ele>65.7</ele>
        <time>2024-04-20T18:24:47Z</time>
      </trkpt>
      <trkpt lat="49.16041" lon="1.9392">
        <ele>65.1</ele>
        <time>2024-04-20T18:25:02Z</time>
      </trkpt>
      <trkpt lat="49.16033" lon="1.9388">
        <ele>64.6</ele>
        <time>2024-04-20T18:25:38Z</time>
      </trkpt>
      <trkpt lat="49.16027" lon="1.93792">
        <ele>64</ele>
        <time>2024-04-20T18:26:56Z</time>
      </trkpt>
      <trkpt lat="49.1602" lon="1.93729">
        <ele>64.1</ele>
        <time>2024-04-20T18:27:51Z</time>
      </trkpt>
      <trkpt lat="49.16024" lon="1.93728">
        <ele>64</ele>
        <time>2024-04-20T18:27:57Z</time>
      </trkpt>
      <trkpt lat="49.16022" lon="1.93712">
        <ele>64</ele>
        <time>2024-04-20T18:28:11Z</time>
      </trkpt>
      <trkpt lat="49.16023" lon="1.93682">
        <ele>64.4</ele>
        <time>2024-04-20T18:28:37Z</time>
      </trkpt>
      <trkpt lat="49.1602" lon="1.93681">
        <ele>64.5</ele>
        <time>2024-04-20T18:28:41Z</time>
      </trkpt>
      <trkpt lat="49.16022" lon="1.93642">
        <ele>65.7</ele>
        <time>2024-04-20T18:29:15Z</time>
      </trkpt>
      <trkpt lat="49.16022" lon="1.93642">
        <ele>65.7</ele>
        <time>2024-04-20T18:29:15Z</time>
      </trkpt>
      <trkpt lat="49.1595" lon="1.93631">
        <ele>63.8</ele>
        <time>2024-04-20T18:30:52Z</time>
      </trkpt>
      <trkpt lat="49.15917" lon="1.93628">
        <ele>63.2</ele>
        <time>2024-04-20T18:31:36Z</time>
      </trkpt>
      <trkpt lat="49.15889" lon="1.93629">
        <ele>63.3</ele>
        <time>2024-04-20T18:32:14Z</time>
      </trkpt>
      <trkpt lat="49.15877" lon="1.93624">
        <ele>62.9</ele>
        <time>2024-04-20T18:32:30Z</time>
      </trkpt>
      <trkpt lat="49.15873" lon="1.93569">
        <ele>62.5</ele>
        <time>2024-04-20T18:33:18Z</time>
      </trkpt>
      <trkpt lat="49.1587" lon="1.93555">
        <ele>63</ele>
        <time>2024-04-20T18:33:31Z</time>
      </trkpt>
      <trkpt lat="49.15832" lon="1.93467">
        <ele>65.4</ele>
        <time>2024-04-20T18:35:03Z</time>
      </trkpt>
      <trkpt lat="49.15821" lon="1.93458">
        <ele>65.8</ele>
        <time>2024-04-20T18:35:20Z</time>
      </trkpt>
      <trkpt lat="49.15749" lon="1.93434">
        <ele>69.1</ele>
        <time>2024-04-20T18:36:58Z</time>
      </trkpt>
      <trkpt lat="49.15744" lon="1.93431">
        <ele>69.5</ele>
        <time>2024-04-20T18:37:05Z</time>
      </trkpt>
      <trkpt lat="49.15734" lon="1.93434">
        <ele>69.1</ele>
        <time>2024-04-20T18:37:19Z</time>
      </trkpt>
      <trkpt lat="49.15582" lon="1.93446">
        <ele>68.9</ele>
        <time>2024-04-20T18:40:42Z</time>
      </trkpt>
      <trkpt lat="49.15546" lon="1.93455">
        <ele>69.4</ele>
        <time>2024-04-20T18:41:31Z</time>
      </trkpt>
      <trkpt lat="49.15528" lon="1.93463">
        <ele>69.6</ele>
        <time>2024-04-20T18:41:56Z</time>
      </trkpt>
      <trkpt lat="49.1551" lon="1.93477">
        <ele>69.3</ele>
        <time>2024-04-20T18:42:23Z</time>
      </trkpt>
      <trkpt lat="49.15453" lon="1.9354">
        <ele>67.3</ele>
        <time>2024-04-20T18:43:57Z</time>
      </trkpt>
      <trkpt lat="49.15424" lon="1.93577">
        <ele>67.7</ele>
        <time>2024-04-20T18:44:47Z</time>
      </trkpt>
      <trkpt lat="49.15363" lon="1.93666">
        <ele>65.9</ele>
        <time>2024-04-20T18:46:40Z</time>
      </trkpt>
      <trkpt lat="49.1532" lon="1.93759">
        <ele>65.8</ele>
        <time>2024-04-20T18:48:19Z</time>
      </trkpt>
      <trkpt lat="49.1528" lon="1.93836">
        <ele>64.7</ele>
        <time>2024-04-20T18:49:45Z</time>
      </trkpt>
      <trkpt lat="49.1525" lon="1.939">
        <ele>66.2</ele>
        <time>2024-04-20T18:50:54Z</time>
      </trkpt>
      <trkpt lat="49.15244" lon="1.9391">
        <ele>66.7</ele>
        <time>2024-04-20T18:51:05Z</time>
      </trkpt>
      <trkpt lat="49.15223" lon="1.93945">
        <ele>65.8</ele>
        <time>2024-04-20T18:51:47Z</time>
      </trkpt>
      <trkpt lat="49.15211" lon="1.93956">
        <ele>64.7</ele>
        <time>2024-04-20T18:52:06Z</time>
      </trkpt>
      <trkpt lat="49.15202" lon="1.93959">
        <ele>64.6</ele>
        <time>2024-04-20T18:52:18Z</time>
      </trkpt>
      <trkpt lat="49.15188" lon="1.93958">
        <ele>64.7</ele>
        <time>2024-04-20T18:52:36Z</time>
      </trkpt>
      <trkpt lat="49.15172" lon="1.93942">
        <ele>65.7</ele>
        <time>2024-04-20T18:53:02Z</time>
      </trkpt>
      <trkpt lat="49.15145" lon="1.93877">
        <ele>65.5</ele>
        <time>2024-04-20T18:54:09Z</time>
      </trkpt>
      <trkpt lat="49.15124" lon="1.93793">
        <ele>67.1</ele>
        <time>2024-04-20T18:55:28Z</time>
      </trkpt>
      <trkpt lat="49.15099" lon="1.9374">
        <ele>66.7</ele>
        <time>2024-04-20T18:56:25Z</time>
      </trkpt>
      <trkpt lat="49.15076" lon="1.937">
        <ele>66.1</ele>
        <time>2024-04-20T18:57:11Z</time>
      </trkpt>
      <trkpt lat="49.1505" lon="1.93663">
        <ele>66</ele>
        <time>2024-04-20T18:57:59Z</time>
      </trkpt>
      <trkpt lat="49.15" lon="1.93612">
        <ele>65.9</ele>
        <time>2024-04-20T18:59:19Z</time>
      </trkpt>
      <trkpt lat="49.1496" lon="1.93588">
        <ele>65.5</ele>
        <time>2024-04-20T19:00:16Z</time>
      </trkpt>
      <trkpt lat="49.1491" lon="1.93565">
        <ele>65.4</ele>
        <time>2024-04-20T19:01:26Z</time>
      </trkpt>
      <trkpt lat="49.14867" lon="1.93553">
        <ele>65</ele>
        <time>2024-04-20T19:02:24Z</time>
      </trkpt>
      <trkpt lat="49.14824" lon="1.93553">
        <ele>65</ele>
        <time>2024-04-20T19:03:22Z</time>
      </trkpt>
      <trkpt lat="49.14753" lon="1.93572">
        <ele>66.2</ele>
        <time>2024-04-20T19:04:58Z</time>
      </trkpt>
      <trkpt lat="49.14694" lon="1.93599">
        <ele>61.3</ele>
        <time>2024-04-20T19:06:20Z</time>
      </trkpt>
      <trkpt lat="49.14657" lon="1.93612">
        <ele>60</ele>
        <time>2024-04-20T19:07:11Z</time>
      </trkpt>
      <trkpt lat="49.14654" lon="1.936">
        <ele>61</ele>
        <time>2024-04-20T19:07:22Z</time>
      </trkpt>
      <trkpt lat="49.14612" lon="1.93582">
        <ele>62.2</ele>
        <time>2024-04-20T19:08:20Z</time>
      </trkpt>
      <trkpt lat="49.14557" lon="1.93544">
        <ele>62.4</ele>
        <time>2024-04-20T19:09:41Z</time>
      </trkpt>
      <trkpt lat="49.14544" lon="1.93528">
        <ele>63.1</ele>
        <time>2024-04-20T19:10:03Z</time>
      </trkpt>
      <trkpt lat="49.14523" lon="1.93482">
        <ele>63.7</ele>
        <time>2024-04-20T19:10:52Z</time>
      </trkpt>
      <trkpt lat="49.14522" lon="1.9348">
        <ele>63.7</ele>
        <time>2024-04-20T19:10:54Z</time>
      </trkpt>
      <trkpt lat="49.14526" lon="1.93432">
        <ele>65.7</ele>
        <time>2024-04-20T19:11:36Z</time>
      </trkpt>
      <trkpt lat="49.14549" lon="1.93338">
        <ele>66</ele>
        <time>2024-04-20T19:13:04Z</time>
      </trkpt>
      <trkpt lat="49.14586" lon="1.93234">
        <ele>66.9</ele>
        <time>2024-04-20T19:14:47Z</time>
      </trkpt>
      <trkpt lat="49.14625" lon="1.9313">
        <ele>68.3</ele>
        <time>2024-04-20T19:16:32Z</time>
      </trkpt>
      <trkpt lat="49.14636" lon="1.93084">
        <ele>70.3</ele>
        <time>2024-04-20T19:17:15Z</time>
      </trkpt>
      <trkpt lat="49.14644" lon="1.93021">
        <ele>70.3</ele>
        <time>2024-04-20T19:18:11Z</time>
      </trkpt>
      <trkpt lat="49.14641" lon="1.92901">
        <ele>68.1</ele>
        <time>2024-04-20T19:19:55Z</time>
      </trkpt>
      <trkpt lat="49.14635" lon="1.9285">
        <ele>66.8</ele>
        <time>2024-04-20T19:20:41Z</time>
      </trkpt>
      <trkpt lat="49.14629" lon="1.92781">
        <ele>67.2</ele>
        <time>2024-04-20T19:21:41Z</time>
      </trkpt>
      <trkpt lat="49.14647" lon="1.92541">
        <ele>72.4</ele>
        <time>2024-04-20T19:25:12Z</time>
      </trkpt>
      <trkpt lat="49.14649" lon="1.92511">
        <ele>73.6</ele>
        <time>2024-04-20T19:25:39Z</time>
      </trkpt>
      <trkpt lat="49.14666" lon="1.92434">
        <ele>77.1</ele>
        <time>2024-04-20T19:26:50Z</time>
      </trkpt>
      <trkpt lat="49.14679" lon="1.9239">
        <ele>83.7</ele>
        <time>2024-04-20T19:27:32Z</time>
      </trkpt>
      <trkpt lat="49.14685" lon="1.92356">
        <ele>87.6</ele>
        <time>2024-04-20T19:28:02Z</time>
      </trkpt>
      <trkpt lat="49.14698" lon="1.92243">
        <ele>87.9</ele>
        <time>2024-04-20T19:29:43Z</time>
      </trkpt>
      <trkpt lat="49.14717" lon="1.92142">
        <ele>86.3</ele>
        <time>2024-04-20T19:31:14Z</time>
      </trkpt>
      <trkpt lat="49.14736" lon="1.92078">
        <ele>87.2</ele>
        <time>2024-04-20T19:32:16Z</time>
      </trkpt>
      <trkpt lat="49.14778" lon="1.9205">
        <ele>89</ele>
        <time>2024-04-20T19:33:17Z</time>
      </trkpt>
      <trkpt lat="49.1477" lon="1.9199">
        <ele>88.9</ele>
        <time>2024-04-20T19:34:10Z</time>
      </trkpt>
      <trkpt lat="49.14756" lon="1.91919">
        <ele>90.2</ele>
        <time>2024-04-20T19:35:15Z</time>
      </trkpt>
      <trkpt lat="49.14739" lon="1.91871">
        <ele>92</ele>
        <time>2024-04-20T19:36:03Z</time>
      </trkpt>
      <trkpt lat="49.14684" lon="1.91771">
        <ele>94.5</ele>
        <time>2024-04-20T19:37:57Z</time>
      </trkpt>
      <trkpt lat="49.14677" lon="1.91752">
        <ele>95</ele>
        <time>2024-04-20T19:38:16Z</time>
      </trkpt>
      <trkpt lat="49.14676" lon="1.91745">
        <ele>95</ele>
        <time>2024-04-20T19:38:22Z</time>
      </trkpt>
      <trkpt lat="49.14669" lon="1.91753">
        <ele>95</ele>
        <time>2024-04-20T19:38:34Z</time>
      </trkpt>
      <trkpt lat="49.14665" lon="1.91745">
        <ele>95</ele>
        <time>2024-04-20T19:38:42Z</time>
      </trkpt>
      <trkpt lat="49.14551" lon="1.91526">
        <ele>96.8</ele>
        <time>2024-04-20T19:42:47Z</time>
      </trkpt>
      <trkpt lat="49.14526" lon="1.91483">
        <ele>96.6</ele>
        <time>2024-04-20T19:43:37Z</time>
      </trkpt>
      <trkpt lat="49.14425" lon="1.91327">
        <ele>96</ele>
        <time>2024-04-20T19:46:49Z</time>
      </trkpt>
      <trkpt lat="49.14367" lon="1.91239">
        <ele>95.5</ele>
        <time>2024-04-20T19:48:38Z</time>
      </trkpt>
      <trkpt lat="49.14351" lon="1.91221">
        <ele>95.6</ele>
        <time>2024-04-20T19:49:04Z</time>
      </trkpt>
      <trkpt lat="49.14343" lon="1.91213">
        <ele>95</ele>
        <time>2024-04-20T19:49:17Z</time>
      </trkpt>
      <trkpt lat="49.14285" lon="1.91172">
        <ele>92.3</ele>
        <time>2024-04-20T19:50:42Z</time>
      </trkpt>
      <trkpt lat="49.14277" lon="1.91154">
        <ele>91.9</ele>
        <time>2024-04-20T19:51:01Z</time>
      </trkpt>
      <trkpt lat="49.1423" lon="1.91074">
        <ele>91.5</ele>
        <time>2024-04-20T19:52:35Z</time>
      </trkpt>
      <trkpt lat="49.1419" lon="1.91026">
        <ele>93.2</ele>
        <time>2024-04-20T19:53:43Z</time>
      </trkpt>
      <trkpt lat="49.14111" lon="1.90863">
        <ele>96</ele>
        <time>2024-04-20T19:56:40Z</time>
      </trkpt>
      <trkpt lat="49.13994" lon="1.90614">
        <ele>97.7</ele>
        <time>2024-04-20T20:01:08Z</time>
      </trkpt>
      <trkpt lat="49.13952" lon="1.90494">
        <ele>97.5</ele>
        <time>2024-04-20T20:03:06Z</time>
      </trkpt>
      <trkpt lat="49.13959" lon="1.90497">
        <ele>97.6</ele>
        <time>2024-04-20T20:03:16Z</time>
      </trkpt>
      <trkpt lat="49.13952" lon="1.90494">
        <ele>97.5</ele>
        <time>2024-04-20T20:03:26Z</time>
      </trkpt>
      <trkpt lat="49.1394" lon="1.9049">
        <ele>97</ele>
        <time>2024-04-20T20:03:42Z</time>
      </trkpt>
      <trkpt lat="49.1392" lon="1.90496">
        <ele>95.4</ele>
        <time>2024-04-20T20:04:09Z</time>
      </trkpt>
      <trkpt lat="49.13868" lon="1.90536">
        <ele>91.8</ele>
        <time>2024-04-20T20:05:27Z</time>
      </trkpt>
      <trkpt lat="49.13849" lon="1.90545">
        <ele>88.5</ele>
        <time>2024-04-20T20:05:54Z</time>
      </trkpt>
      <trkpt lat="49.13828" lon="1.90549">
        <ele>86</ele>
        <time>2024-04-20T20:06:22Z</time>
      </trkpt>
      <trkpt lat="49.13821" lon="1.90553">
        <ele>85.6</ele>
        <time>2024-04-20T20:06:32Z</time>
      </trkpt>
      <trkpt lat="49.13817" lon="1.90558">
        <ele>85.3</ele>
        <time>2024-04-20T20:06:39Z</time>
      </trkpt>
      <trkpt lat="49.13817" lon="1.90586">
        <ele>84.6</ele>
        <time>2024-04-20T20:07:03Z</time>
      </trkpt>
      <trkpt lat="49.1382" lon="1.90619">
        <ele>84.5</ele>
        <time>2024-04-20T20:07:32Z</time>
      </trkpt>
      <trkpt lat="49.13834" lon="1.90716">
        <ele>84.6</ele>
        <time>2024-04-20T20:08:59Z</time>
      </trkpt>
      <trkpt lat="49.13836" lon="1.90743">
        <ele>85.8</ele>
        <time>2024-04-20T20:09:23Z</time>
      </trkpt>
      <trkpt lat="49.13837" lon="1.90785">
        <ele>87.6</ele>
        <time>2024-04-20T20:09:59Z</time>
      </trkpt>
      <trkpt lat="49.13833" lon="1.90808">
        <ele>90.2</ele>
        <time>2024-04-20T20:10:20Z</time>
      </trkpt>
      <trkpt lat="49.13828" lon="1.90819">
        <ele>91.7</ele>
        <time>2024-04-20T20:10:32Z</time>
      </trkpt>
      <trkpt lat="49.13804" lon="1.9084">
        <ele>95.3</ele>
        <time>2024-04-20T20:11:09Z</time>
      </trkpt>
      <trkpt lat="49.13798" lon="1.90848">
        <ele>95.8</ele>
        <time>2024-04-20T20:11:19Z</time>
      </trkpt>
      <trkpt lat="49.13785" lon="1.90871">
        <ele>96.3</ele>
        <time>2024-04-20T20:11:46Z</time>
      </trkpt>
      <trkpt lat="49.13781" lon="1.90868">
        <ele>96.2</ele>
        <time>2024-04-20T20:11:52Z</time>
      </trkpt>
      <trkpt lat="49.13785" lon="1.90857">
        <ele>96.1</ele>
        <time>2024-04-20T20:12:03Z</time>
      </trkpt>
      <trkpt lat="49.13786" lon="1.9084">
        <ele>96.3</ele>
        <time>2024-04-20T20:12:18Z</time>
      </trkpt>
      <trkpt lat="49.13767" lon="1.90783">
        <ele>97.4</ele>
        <time>2024-04-20T20:13:14Z</time>
      </trkpt>
      <trkpt lat="49.13786" lon="1.9084">
        <ele>96.3</ele>
        <time>2024-04-20T20:14:10Z</time>
      </trkpt>
      <trkpt lat="49.13785" lon="1.90857">
        <ele>96.1</ele>
        <time>2024-04-20T20:14:24Z</time>
      </trkpt>
      <trkpt lat="49.13781" lon="1.90868">
        <ele>96.2</ele>
        <time>2024-04-20T20:14:35Z</time>
      </trkpt>
      <trkpt lat="49.13761" lon="1.90904">
        <ele>97.6</ele>
        <time>2024-04-20T20:15:17Z</time>
      </trkpt>
      <trkpt lat="49.13781" lon="1.90868">
        <ele>96.2</ele>
        <time>2024-04-20T20:15:58Z</time>
      </trkpt>
      <trkpt lat="49.13785" lon="1.90871">
        <ele>96.3</ele>
        <time>2024-04-20T20:16:04Z</time>
      </trkpt>
      <trkpt lat="49.13798" lon="1.90848">
        <ele>95.8</ele>
        <time>2024-04-20T20:16:30Z</time>
      </trkpt>
      <trkpt lat="49.13804" lon="1.9084">
        <ele>95.3</ele>
        <time>2024-04-20T20:16:41Z</time>
      </trkpt>
      <trkpt lat="49.13823" lon="1.90825">
        <ele>92.7</ele>
        <time>2024-04-20T20:17:10Z</time>
      </trkpt>
      <trkpt lat="49.13828" lon="1.90819">
        <ele>91.7</ele>
        <time>2024-04-20T20:17:18Z</time>
      </trkpt>
      <trkpt lat="49.13833" lon="1.90808">
        <ele>90.2</ele>
        <time>2024-04-20T20:17:30Z</time>
      </trkpt>
      <trkpt lat="49.13837" lon="1.90785">
        <ele>87.6</ele>
        <time>2024-04-20T20:17:50Z</time>
      </trkpt>
      <trkpt lat="49.13836" lon="1.90743">
        <ele>85.8</ele>
        <time>2024-04-20T20:18:27Z</time>
      </trkpt>
      <trkpt lat="49.13842" lon="1.90749">
        <ele>84.8</ele>
        <time>2024-04-20T20:18:37Z</time>
      </trkpt>
      <trkpt lat="49.13865" lon="1.90827">
        <ele>82.5</ele>
        <time>2024-04-20T20:19:51Z</time>
      </trkpt>
      <trkpt lat="49.13903" lon="1.90896">
        <ele>76.7</ele>
        <time>2024-04-20T20:21:10Z</time>
      </trkpt>
      <trkpt lat="49.13949" lon="1.90971">
        <ele>73.5</ele>
        <time>2024-04-20T20:22:40Z</time>
      </trkpt>
      <trkpt lat="49.13977" lon="1.91025">
        <ele>74.5</ele>
        <time>2024-04-20T20:23:40Z</time>
      </trkpt>
      <trkpt lat="49.13977" lon="1.91025">
        <ele>74.5</ele>
        <time>2024-04-20T20:23:40Z</time>
      </trkpt>
      <trkpt lat="49.13984" lon="1.91046">
        <ele>74</ele>
        <time>2024-04-20T20:24:01Z</time>
      </trkpt>
      <trkpt lat="49.14004" lon="1.91074">
        <ele>72.4</ele>
        <time>2024-04-20T20:24:37Z</time>
      </trkpt>
      <trkpt lat="49.1402" lon="1.911">
        <ele>73.3</ele>
        <time>2024-04-20T20:25:08Z</time>
      </trkpt>
      <trkpt lat="49.14032" lon="1.91135">
        <ele>72.5</ele>
        <time>2024-04-20T20:25:43Z</time>
      </trkpt>
      <trkpt lat="49.14082" lon="1.91297">
        <ele>72.5</ele>
        <time>2024-04-20T20:28:19Z</time>
      </trkpt>
      <trkpt lat="49.14092" lon="1.91319">
        <ele>73.7</ele>
        <time>2024-04-20T20:28:42Z</time>
      </trkpt>
      <trkpt lat="49.14106" lon="1.91343">
        <ele>75</ele>
        <time>2024-04-20T20:29:10Z</time>
      </trkpt>
      <trkpt lat="49.14126" lon="1.91368">
        <ele>77.2</ele>
        <time>2024-04-20T20:29:45Z</time>
      </trkpt>
      <trkpt lat="49.14148" lon="1.91385">
        <ele>80.1</ele>
        <time>2024-04-20T20:30:18Z</time>
      </trkpt>
      <trkpt lat="49.14171" lon="1.91441">
        <ele>81.6</ele>
        <time>2024-04-20T20:31:15Z</time>
      </trkpt>
      <trkpt lat="49.14169" lon="1.9147">
        <ele>80.6</ele>
        <time>2024-04-20T20:31:41Z</time>
      </trkpt>
      <trkpt lat="49.14152" lon="1.91567">
        <ele>80.4</ele>
        <time>2024-04-20T20:33:09Z</time>
      </trkpt>
      <trkpt lat="49.1412" lon="1.91668">
        <ele>79.3</ele>
        <time>2024-04-20T20:34:47Z</time>
      </trkpt>
      <trkpt lat="49.14085" lon="1.91728">
        <ele>77</ele>
        <time>2024-04-20T20:35:57Z</time>
      </trkpt>
      <trkpt lat="49.14057" lon="1.9176">
        <ele>74.4</ele>
        <time>2024-04-20T20:36:43Z</time>
      </trkpt>
      <trkpt lat="49.14033" lon="1.91827">
        <ele>76.6</ele>
        <time>2024-04-20T20:37:50Z</time>
      </trkpt>
      <trkpt lat="49.1396" lon="1.91908">
        <ele>73.7</ele>
        <time>2024-04-20T20:39:50Z</time>
      </trkpt>
      <trkpt lat="49.13846" lon="1.91983">
        <ele>72.7</ele>
        <time>2024-04-20T20:42:36Z</time>
      </trkpt>
      <trkpt lat="49.13748" lon="1.92052">
        <ele>77</ele>
        <time>2024-04-20T20:45:00Z</time>
      </trkpt>
      <trkpt lat="49.13678" lon="1.92172">
        <ele>76.8</ele>
        <time>2024-04-20T20:47:20Z</time>
      </trkpt>
      <trkpt lat="49.13623" lon="1.92314">
        <ele>73.4</ele>
        <time>2024-04-20T20:49:44Z</time>
      </trkpt>
      <trkpt lat="49.13564" lon="1.92494">
        <ele>72.1</ele>
        <time>2024-04-20T20:52:40Z</time>
      </trkpt>
      <trkpt lat="49.1352" lon="1.92661">
        <ele>75.1</ele>
        <time>2024-04-20T20:55:17Z</time>
      </trkpt>
      <trkpt lat="49.13478" lon="1.92835">
        <ele>68.7</ele>
        <time>2024-04-20T20:57:59Z</time>
      </trkpt>
      <trkpt lat="49.13438" lon="1.92942">
        <ele>67.2</ele>
        <time>2024-04-20T20:59:47Z</time>
      </trkpt>
      <trkpt lat="49.13433" lon="1.92958">
        <ele>67.3</ele>
        <time>2024-04-20T21:00:02Z</time>
      </trkpt>
      <trkpt lat="49.13433" lon="1.92976">
        <ele>68.3</ele>
        <time>2024-04-20T21:00:18Z</time>
      </trkpt>
      <trkpt lat="49.13426" lon="1.93">
        <ele>69</ele>
        <time>2024-04-20T21:00:41Z</time>
      </trkpt>
      <trkpt lat="49.13394" lon="1.93048">
        <ele>70</ele>
        <time>2024-04-20T21:01:41Z</time>
      </trkpt>
      <trkpt lat="49.13376" lon="1.93072">
        <ele>71.8</ele>
        <time>2024-04-20T21:02:13Z</time>
      </trkpt>
      <trkpt lat="49.13364" lon="1.93085">
        <ele>72.9</ele>
        <time>2024-04-20T21:02:32Z</time>
      </trkpt>
      <trkpt lat="49.13341" lon="1.93105">
        <ele>73.8</ele>
        <time>2024-04-20T21:03:08Z</time>
      </trkpt>
      <trkpt lat="49.13272" lon="1.93156">
        <ele>78.6</ele>
        <time>2024-04-20T21:04:50Z</time>
      </trkpt>
      <trkpt lat="49.13254" lon="1.93174">
        <ele>80.1</ele>
        <time>2024-04-20T21:05:19Z</time>
      </trkpt>
      <trkpt lat="49.1324" lon="1.93205">
        <ele>81.6</ele>
        <time>2024-04-20T21:05:52Z</time>
      </trkpt>
      <trkpt lat="49.13238" lon="1.93213">
        <ele>82.2</ele>
        <time>2024-04-20T21:05:59Z</time>
      </trkpt>
      <trkpt lat="49.13238" lon="1.93243">
        <ele>84.6</ele>
        <time>2024-04-20T21:06:25Z</time>
      </trkpt>
      <trkpt lat="49.13241" lon="1.93281">
        <ele>86.8</ele>
        <time>2024-04-20T21:06:59Z</time>
      </trkpt>
      <trkpt lat="49.13243" lon="1.93291">
        <ele>87.2</ele>
        <time>2024-04-20T21:07:08Z</time>
      </trkpt>
      <trkpt lat="49.13245" lon="1.933">
        <ele>87.6</ele>
        <time>2024-04-20T21:07:16Z</time>
      </trkpt>
      <trkpt lat="49.13219" lon="1.93366">
        <ele>87.9</ele>
        <time>2024-04-20T21:08:23Z</time>
      </trkpt>
      <trkpt lat="49.13154" lon="1.9352">
        <ele>85.1</ele>
        <time>2024-04-20T21:11:03Z</time>
      </trkpt>
      <trkpt lat="49.13126" lon="1.93589">
        <ele>84.2</ele>
        <time>2024-04-20T21:12:14Z</time>
      </trkpt>
      <trkpt lat="49.131" lon="1.93659">
        <ele>83.6</ele>
        <time>2024-04-20T21:13:25Z</time>
      </trkpt>
      <trkpt lat="49.1308" lon="1.93696">
        <ele>83.1</ele>
        <time>2024-04-20T21:14:07Z</time>
      </trkpt>
      <trkpt lat="49.13044" lon="1.9374">
        <ele>83.2</ele>
        <time>2024-04-20T21:15:08Z</time>
      </trkpt>
      <trkpt lat="49.12902" lon="1.93754">
        <ele>76</ele>
        <time>2024-04-20T21:18:18Z</time>
      </trkpt>
      <trkpt lat="49.12866" lon="1.93763">
        <ele>73.4</ele>
        <time>2024-04-20T21:19:07Z</time>
      </trkpt>
      <trkpt lat="49.12833" lon="1.93768">
        <ele>70.3</ele>
        <time>2024-04-20T21:19:51Z</time>
      </trkpt>
      <trkpt lat="49.12774" lon="1.93769">
        <ele>63.7</ele>
        <time>2024-04-20T21:21:10Z</time>
      </trkpt>
      <trkpt lat="49.12749" lon="1.93775">
        <ele>61.7</ele>
        <time>2024-04-20T21:21:43Z</time>
      </trkpt>
      <trkpt lat="49.12735" lon="1.93788">
        <ele>62</ele>
        <time>2024-04-20T21:22:05Z</time>
      </trkpt>
      <trkpt lat="49.12677" lon="1.93857">
        <ele>63</ele>
        <time>2024-04-20T21:23:43Z</time>
      </trkpt>
      <trkpt lat="49.12672" lon="1.93859">
        <ele>62.5</ele>
        <time>2024-04-20T21:23:50Z</time>
      </trkpt>
      <trkpt lat="49.12663" lon="1.93864">
        <ele>61.9</ele>
        <time>2024-04-20T21:24:03Z</time>
      </trkpt>
      <trkpt lat="49.12643" lon="1.93869">
        <ele>60.1</ele>
        <time>2024-04-20T21:24:30Z</time>
      </trkpt>
      <trkpt lat="49.12601" lon="1.93855">
        <ele>55.6</ele>
        <time>2024-04-20T21:25:27Z</time>
      </trkpt>
      <trkpt lat="49.12537" lon="1.93808">
        <ele>55.6</ele>
        <time>2024-04-20T21:27:02Z</time>
      </trkpt>
      <trkpt lat="49.12515" lon="1.93778">
        <ele>56.5</ele>
        <time>2024-04-20T21:27:42Z</time>
      </trkpt>
      <trkpt lat="49.12496" lon="1.93747">
        <ele>60</ele>
        <time>2024-04-20T21:28:19Z</time>
      </trkpt>
      <trkpt lat="49.12484" lon="1.93743">
        <ele>62.3</ele>
        <time>2024-04-20T21:28:35Z</time>
      </trkpt>
      <trkpt lat="49.12453" lon="1.93793">
        <ele>59</ele>
        <time>2024-04-20T21:29:35Z</time>
      </trkpt>
      <trkpt lat="49.12446" lon="1.93798">
        <ele>58.8</ele>
        <time>2024-04-20T21:29:45Z</time>
      </trkpt>
      <trkpt lat="49.12434" lon="1.93804">
        <ele>58.1</ele>
        <time>2024-04-20T21:30:02Z</time>
      </trkpt>
      <trkpt lat="49.12396" lon="1.93814">
        <ele>57.7</ele>
        <time>2024-04-20T21:30:54Z</time>
      </trkpt>
      <trkpt lat="49.1238" lon="1.93823">
        <ele>58.1</ele>
        <time>2024-04-20T21:31:17Z</time>
      </trkpt>
      <trkpt lat="49.12373" lon="1.9383">
        <ele>58.7</ele>
        <time>2024-04-20T21:31:28Z</time>
      </trkpt>
      <trkpt lat="49.12365" lon="1.93845">
        <ele>59.6</ele>
        <time>2024-04-20T21:31:45Z</time>
      </trkpt>
      <trkpt lat="49.12352" lon="1.93914">
        <ele>61.7</ele>
        <time>2024-04-20T21:32:47Z</time>
      </trkpt>
      <trkpt lat="49.12343" lon="1.93954">
        <ele>61.3</ele>
        <time>2024-04-20T21:33:24Z</time>
      </trkpt>
      <trkpt lat="49.12334" lon="1.93985">
        <ele>60.5</ele>
        <time>2024-04-20T21:33:54Z</time>
      </trkpt>
      <trkpt lat="49.12323" lon="1.94008">
        <ele>59.1</ele>
        <time>2024-04-20T21:34:19Z</time>
      </trkpt>
      <trkpt lat="49.12309" lon="1.9402">
        <ele>58.7</ele>
        <time>2024-04-20T21:34:40Z</time>
      </trkpt>
      <trkpt lat="49.1227" lon="1.94037">
        <ele>57.6</ele>
        <time>2024-04-20T21:35:34Z</time>
      </trkpt>
      <trkpt lat="49.12251" lon="1.94038">
        <ele>57.3</ele>
        <time>2024-04-20T21:36:00Z</time>
      </trkpt>
      <trkpt lat="49.12239" lon="1.94039">
        <ele>58.1</ele>
        <time>2024-04-20T21:36:16Z</time>
      </trkpt>
      <trkpt lat="49.12256" lon="1.94088">
        <ele>55.6</ele>
        <time>2024-04-20T21:37:04Z</time>
      </trkpt>
      <trkpt lat="49.12257" lon="1.94104">
        <ele>55</ele>
        <time>2024-04-20T21:37:18Z</time>
      </trkpt>
      <trkpt lat="49.12269" lon="1.94157">
        <ele>53.1</ele>
        <time>2024-04-20T21:38:07Z</time>
      </trkpt>
      <trkpt lat="49.12271" lon="1.94162">
        <ele>53</ele>
        <time>2024-04-20T21:38:12Z</time>
      </trkpt>
      <trkpt lat="49.1228" lon="1.94183">
        <ele>53</ele>
        <time>2024-04-20T21:38:34Z</time>
      </trkpt>
      <trkpt lat="49.1235" lon="1.94304">
        <ele>60.7</ele>
        <time>2024-04-20T21:40:55Z</time>
      </trkpt>
      <trkpt lat="49.12392" lon="1.94409">
        <ele>67.8</ele>
        <time>2024-04-20T21:42:43Z</time>
      </trkpt>
      <trkpt lat="49.12409" lon="1.94494">
        <ele>72.4</ele>
        <time>2024-04-20T21:44:00Z</time>
      </trkpt>
      <trkpt lat="49.12436" lon="1.94619">
        <ele>75.4</ele>
        <time>2024-04-20T21:45:55Z</time>
      </trkpt>
      <trkpt lat="49.12438" lon="1.94625">
        <ele>75.3</ele>
        <time>2024-04-20T21:46:01Z</time>
      </trkpt>
      <trkpt lat="49.1241" lon="1.94656">
        <ele>73.1</ele>
        <time>2024-04-20T21:46:47Z</time>
      </trkpt>
      <trkpt lat="49.12431" lon="1.94715">
        <ele>66.9</ele>
        <time>2024-04-20T21:47:46Z</time>
      </trkpt>
      <trkpt lat="49.12433" lon="1.9477">
        <ele>60.7</ele>
        <time>2024-04-20T21:48:34Z</time>
      </trkpt>
      <trkpt lat="49.12437" lon="1.94795">
        <ele>58.3</ele>
        <time>2024-04-20T21:48:56Z</time>
      </trkpt>
      <trkpt lat="49.12427" lon="1.94805">
        <ele>58.3</ele>
        <time>2024-04-20T21:49:12Z</time>
      </trkpt>
      <trkpt lat="49.12422" lon="1.94814">
        <ele>57.8</ele>
        <time>2024-04-20T21:49:23Z</time>
      </trkpt>
      <trkpt lat="49.12422" lon="1.94826">
        <ele>56.5</ele>
        <time>2024-04-20T21:49:33Z</time>
      </trkpt>
      <trkpt lat="49.1243" lon="1.94843">
        <ele>55.2</ele>
        <time>2024-04-20T21:49:52Z</time>
      </trkpt>
      <trkpt lat="49.12431" lon="1.94847">
        <ele>55</ele>
        <time>2024-04-20T21:49:55Z</time>
      </trkpt>
      <trkpt lat="49.12415" lon="1.94882">
        <ele>55</ele>
        <time>2024-04-20T21:50:33Z</time>
      </trkpt>
      <trkpt lat="49.12427" lon="1.94898">
        <ele>54.4</ele>
        <time>2024-04-20T21:50:54Z</time>
      </trkpt>
      <trkpt lat="49.12437" lon="1.94912">
        <ele>54</ele>
        <time>2024-04-20T21:51:12Z</time>
      </trkpt>
      <trkpt lat="49.12433" lon="1.94917">
        <ele>54</ele>
        <time>2024-04-20T21:51:19Z</time>
      </trkpt>
    </trkseg>
  </trk>
</gpx>